createdAt,value
2023-01-28T00:01:59.796Z,7.30
2023-01-28T00:04:30.181Z,6.13
2023-01-28T00:07:00.644Z,5.90
2023-01-28T00:09:30.877Z,6.15
2023-01-28T00:12:03.822Z,6.13
2023-01-28T00:14:34.048Z,6.53
2023-01-28T00:17:04.399Z,5.25
2023-01-28T00:19:34.768Z,5.00
2023-01-28T00:22:04.977Z,6.38
2023-01-28T00:24:35.264Z,7.30
2023-01-28T00:27:08.125Z,6.78
2023-01-28T00:29:38.759Z,6.27
2023-01-28T00:32:09.528Z,7.20
2023-01-28T00:34:39.705Z,7.13
2023-01-28T00:37:09.939Z,7.25
2023-01-28T00:39:40.328Z,7.20
2023-01-28T00:42:13.243Z,6.90
2023-01-28T00:44:43.451Z,7.50
2023-01-28T00:47:13.891Z,7.47
2023-01-28T00:49:44.189Z,7.65
2023-01-28T00:52:14.475Z,7.30
2023-01-28T00:54:44.588Z,7.88
2023-01-28T00:57:17.509Z,7.40
2023-01-28T00:59:47.826Z,7.38
2023-01-28T01:02:18.164Z,7.45
2023-01-28T01:04:55.226Z,7.53
2023-01-28T01:07:35.049Z,7.72
2023-01-28T01:10:05.705Z,6.80
2023-01-28T01:12:38.717Z,7.47
2023-01-28T01:15:11.243Z,8.73
2023-01-28T01:17:42.461Z,9.93
2023-01-28T01:20:18.133Z,9.82
2023-01-28T01:22:48.542Z,7.60
2023-01-28T01:25:20.274Z,7.65
2023-01-28T01:27:54.066Z,7.60
2023-01-28T01:32:54.238Z,7.40
2023-01-28T01:35:24.553Z,6.15
2023-01-28T01:37:54.654Z,6.38
2023-01-28T01:40:24.945Z,6.68
2023-01-28T01:42:58.151Z,6.50
2023-01-28T01:45:29.793Z,6.53
2023-01-28T01:48:04.901Z,5.97
2023-01-28T01:50:39.290Z,6.00
2023-01-28T01:55:46.454Z,5.85
2023-01-28T01:58:21.574Z,5.30
2023-01-28T02:00:52.097Z,5.00
2023-01-28T02:03:29.590Z,5.35
2023-01-28T02:05:59.950Z,6.18
2023-01-28T02:08:30.266Z,6.57
2023-01-28T02:11:05.974Z,5.88
2023-01-28T02:13:42.949Z,5.57
2023-01-28T02:16:14.875Z,5.25
2023-01-28T02:18:45.155Z,4.90
2023-01-28T02:21:46.981Z,6.35
2023-01-28T02:24:38.867Z,5.60
2023-01-28T02:27:30.245Z,5.50
2023-01-28T02:30:10.846Z,6.20
2023-01-28T02:32:49.097Z,5.25
2023-01-28T02:35:25.613Z,5.63
2023-01-28T02:38:01.312Z,5.70
2023-01-28T02:40:34.426Z,7.72
2023-01-28T02:43:04.851Z,6.63
2023-01-28T02:45:51.106Z,6.28
2023-01-28T02:48:22.667Z,5.40
2023-01-28T02:51:01.237Z,7.22
2023-01-28T02:53:44.459Z,6.45
2023-01-28T02:56:29.713Z,7.35
2023-01-28T02:59:26.728Z,6.68
2023-01-28T03:02:03.440Z,7.07
2023-01-28T03:04:38.605Z,6.40
2023-01-28T03:07:12.669Z,6.30
2023-01-28T03:09:51.492Z,6.22
2023-01-28T03:12:42.819Z,6.22
2023-01-28T03:15:29.374Z,6.57
2023-01-28T03:18:19.022Z,6.55
2023-01-28T03:21:09.052Z,5.93
2023-01-28T03:23:55.505Z,7.03
2023-01-28T03:26:42.303Z,5.43
2023-01-28T03:29:29.634Z,6.10
2023-01-28T03:32:14.658Z,6.22
2023-01-28T03:35:00.324Z,6.82
2023-01-28T03:37:32.220Z,6.68
2023-01-28T03:40:06.291Z,5.82
2023-01-28T03:42:37.073Z,6.93
2023-01-28T03:45:08.499Z,6.10
2023-01-28T03:47:40.895Z,6.50
2023-01-28T03:50:14.408Z,6.05
2023-01-28T03:52:44.926Z,5.50
2023-01-28T03:55:16.471Z,5.40
2023-01-28T03:57:48.294Z,5.63
2023-01-28T04:00:21.774Z,6.07
2023-01-28T04:02:52.224Z,5.65
2023-01-28T04:05:25.638Z,6.03
2023-01-28T04:07:58.367Z,5.78
2023-01-28T04:10:28.511Z,5.82
2023-01-28T04:12:58.736Z,5.53
2023-01-28T04:15:29.036Z,5.40
2023-01-28T04:18:00.968Z,5.60
2023-01-28T04:20:35.138Z,5.60
2023-01-28T04:25:35.839Z,4.95
2023-01-28T04:28:06.029Z,5.03
2023-01-28T04:30:36.241Z,5.78
2023-01-28T04:33:06.657Z,5.88
2023-01-28T04:35:39.427Z,5.57
2023-01-28T04:38:09.779Z,6.32
2023-01-28T04:40:40.053Z,5.35
2023-01-28T04:43:10.488Z,6.20
2023-01-28T04:45:40.597Z,5.35
2023-01-28T04:48:10.953Z,6.07
2023-01-28T04:50:45.913Z,5.60
2023-01-28T04:53:16.440Z,4.82
2023-01-28T04:55:48.495Z,5.45
2023-01-28T04:58:18.565Z,6.38
2023-01-28T05:00:48.899Z,5.47
2023-01-28T05:03:19.087Z,6.07
2023-01-28T05:05:52.026Z,5.53
2023-01-28T05:08:22.347Z,5.20
2023-01-28T05:10:52.653Z,6.60
2023-01-28T05:13:22.833Z,5.05
2023-01-28T05:15:56.297Z,5.78
2023-01-28T05:18:26.463Z,6.72
2023-01-28T05:20:59.383Z,5.65
2023-01-28T05:23:29.513Z,5.38
2023-01-28T05:25:59.776Z,6.00
2023-01-28T05:28:30.084Z,5.97
2023-01-28T05:31:00.515Z,5.35
2023-01-28T05:33:30.937Z,5.40
2023-01-28T05:36:04.186Z,5.10
2023-01-28T05:38:34.482Z,5.57
2023-01-28T05:41:04.767Z,5.82
2023-01-28T05:43:35.005Z,6.45
2023-01-28T05:46:05.502Z,5.00
2023-01-28T05:48:35.674Z,8.38
2023-01-28T05:51:09.061Z,7.00
2023-01-28T05:53:39.399Z,7.18
2023-01-28T05:56:10.498Z,7.47
2023-01-28T05:58:40.794Z,7.03
2023-01-28T06:01:10.959Z,7.25
2023-01-28T06:03:41.407Z,4.97
2023-01-28T06:06:14.311Z,5.15
2023-01-28T06:08:44.890Z,5.55
2023-01-28T06:11:15.109Z,5.93
2023-01-28T06:13:48.589Z,6.13
2023-01-28T06:16:18.899Z,5.07
2023-01-28T06:18:52.089Z,4.72
2023-01-28T06:21:25.015Z,5.03
2023-01-28T06:23:55.315Z,4.28
2023-01-28T06:26:25.436Z,5.07
2023-01-28T06:28:56.005Z,4.80
2023-01-28T06:31:26.258Z,4.47
2023-01-28T06:33:56.553Z,2.33
2023-01-28T06:36:29.399Z,5.40
2023-01-28T06:39:00.762Z,6.18
2023-01-28T06:41:31.041Z,5.32
2023-01-28T06:44:01.550Z,5.68
2023-01-28T06:46:32.267Z,5.90
2023-01-28T06:49:02.690Z,5.57
2023-01-28T06:51:35.474Z,4.30
2023-01-28T06:54:06.086Z,6.18
2023-01-28T06:56:36.317Z,5.53
2023-01-28T06:59:06.913Z,5.70
2023-01-28T07:01:37.309Z,5.60
2023-01-28T07:04:08.956Z,6.57
2023-01-28T07:06:41.701Z,4.57
2023-01-28T07:09:12.562Z,5.30
2023-01-28T07:11:42.769Z,5.47
2023-01-28T07:14:12.960Z,4.82
2023-01-28T07:16:43.176Z,5.88
2023-01-28T07:19:13.790Z,5.70
2023-01-28T07:21:48.046Z,4.97
2023-01-28T07:26:51.110Z,5.03
2023-01-28T07:29:21.422Z,5.15
2023-01-28T07:31:51.818Z,5.70
2023-01-28T07:34:22.120Z,5.47
2023-01-28T07:36:57.239Z,5.60
2023-01-28T07:39:27.838Z,5.57
2023-01-28T07:41:58.121Z,6.38
2023-01-28T07:44:28.706Z,8.20
2023-01-28T07:46:59.044Z,4.70
2023-01-28T07:49:29.238Z,4.80
2023-01-28T07:52:02.183Z,5.57
2023-01-28T07:54:32.538Z,5.17
2023-01-28T07:57:02.807Z,4.78
2023-01-28T07:59:33.132Z,5.60
2023-01-28T08:02:03.878Z,5.97
2023-01-28T08:04:34.798Z,5.22
2023-01-28T08:07:08.322Z,4.50
2023-01-28T08:09:38.615Z,5.53
2023-01-28T08:12:09.201Z,5.38
2023-01-28T08:14:39.428Z,4.95
2023-01-28T08:17:09.647Z,5.22
2023-01-28T08:19:39.877Z,5.68
2023-01-28T08:22:12.822Z,6.35
2023-01-28T08:24:43.019Z,6.47
2023-01-28T08:27:13.373Z,5.88
2023-01-28T08:29:45.069Z,5.57
2023-01-28T08:32:15.801Z,5.47
2023-01-28T08:34:45.940Z,6.03
2023-01-28T08:37:18.822Z,5.65
2023-01-28T08:39:50.062Z,5.10
2023-01-28T08:42:20.867Z,6.15
2023-01-28T08:44:51.059Z,5.30
2023-01-28T08:47:21.633Z,5.63
2023-01-28T08:49:51.993Z,6.30
2023-01-28T08:52:25.032Z,5.45
2023-01-28T08:54:55.287Z,6.15
2023-01-28T08:57:25.628Z,3.72
2023-01-28T08:59:56.154Z,5.97
2023-01-28T09:02:32.007Z,3.95
2023-01-28T09:05:02.903Z,6.38
2023-01-28T09:07:37.834Z,6.43
2023-01-28T09:10:09.153Z,6.10
2023-01-28T09:12:39.700Z,5.05
2023-01-28T09:15:11.821Z,4.35
2023-01-28T09:17:45.045Z,4.10
2023-01-28T09:20:16.458Z,4.85
2023-01-28T09:22:49.644Z,5.55
2023-01-28T09:25:19.940Z,4.68
2023-01-28T09:27:50.343Z,6.15
2023-01-28T09:30:21.169Z,4.93
2023-01-28T09:32:54.101Z,6.03
2023-01-28T09:35:25.148Z,4.47
2023-01-28T09:38:01.509Z,6.50
2023-01-28T09:40:37.336Z,5.85
2023-01-28T09:43:34.489Z,6.30
2023-01-28T09:46:08.565Z,8.77
2023-01-28T09:48:44.021Z,6.88
2023-01-28T09:51:25.524Z,6.85
2023-01-28T09:54:00.677Z,5.20
2023-01-28T09:56:34.817Z,5.75
2023-01-28T09:59:19.770Z,7.35
2023-01-28T10:01:57.618Z,7.10
2023-01-28T10:04:45.819Z,5.22
2023-01-28T10:07:28.235Z,6.95
2023-01-28T10:10:07.150Z,6.32
2023-01-28T10:12:53.046Z,6.70
2023-01-28T10:15:43.681Z,6.13
2023-01-28T10:18:18.412Z,6.30
2023-01-28T10:20:52.946Z,6.68
2023-01-28T10:23:28.558Z,6.35
2023-01-28T10:26:04.479Z,5.90
2023-01-28T10:28:36.977Z,5.38
2023-01-28T10:31:15.522Z,5.63
2023-01-28T10:33:45.735Z,5.72
2023-01-28T10:36:18.542Z,5.50
2023-01-28T10:38:48.851Z,5.28
2023-01-28T10:41:26.831Z,6.05
2023-01-28T10:43:56.987Z,6.47
2023-01-28T10:46:31.910Z,5.22
2023-01-28T10:49:10.031Z,5.03
2023-01-28T10:51:41.954Z,6.75
2023-01-28T10:54:26.182Z,3.97
2023-01-28T10:57:02.856Z,6.78
2023-01-28T10:59:36.854Z,6.50
2023-01-28T11:04:39.320Z,5.60
2023-01-28T11:07:21.027Z,5.47
2023-01-28T11:09:53.158Z,6.38
2023-01-28T11:12:28.766Z,6.10
2023-01-28T11:15:00.959Z,4.95
2023-01-28T11:17:35.252Z,7.28
2023-01-28T11:20:16.369Z,6.35
2023-01-28T11:22:48.896Z,6.65
2023-01-28T11:25:22.489Z,5.95
2023-01-28T11:27:57.400Z,7.05
2023-01-28T11:30:31.392Z,6.07
2023-01-28T11:33:06.241Z,6.88
2023-01-28T11:35:36.418Z,5.80
2023-01-28T11:38:06.711Z,7.20
2023-01-28T11:40:37.122Z,5.78
2023-01-28T11:43:13.957Z,5.20
2023-01-28T11:45:52.538Z,5.78
2023-01-28T11:48:33.530Z,6.65
2023-01-28T11:51:11.117Z,5.03
2023-01-28T11:54:03.438Z,7.00
2023-01-28T11:56:52.052Z,8.38
2023-01-28T11:59:48.760Z,7.63
2023-01-28T12:02:34.161Z,6.25
2023-01-28T12:05:20.249Z,6.00
2023-01-28T12:07:57.128Z,6.60
2023-01-28T12:10:37.208Z,4.88
2023-01-28T12:13:32.095Z,6.38
2023-01-28T12:16:17.013Z,6.43
2023-01-28T12:19:11.635Z,6.55
2023-01-28T12:21:52.481Z,5.35
2023-01-28T12:24:38.390Z,5.82
2023-01-28T12:27:24.886Z,6.07
2023-01-28T12:30:06.884Z,5.72
2023-01-28T12:32:57.898Z,6.47
2023-01-28T12:35:38.398Z,5.82
2023-01-28T12:38:12.714Z,5.20
2023-01-28T12:40:53.883Z,7.18
2023-01-28T12:43:30.237Z,6.25
2023-01-28T12:46:06.378Z,5.93
2023-01-28T12:48:43.770Z,7.40
2023-01-28T12:51:18.156Z,6.13
2023-01-28T12:53:54.203Z,6.28
2023-01-28T12:56:29.427Z,7.18
2023-01-28T12:59:07.295Z,8.88
2023-01-28T13:01:44.908Z,7.40
2023-01-28T13:04:31.238Z,8.70
2023-01-28T13:07:07.016Z,7.93
2023-01-28T13:09:43.983Z,6.22
2023-01-28T13:12:15.758Z,6.53
2023-01-28T13:14:46.512Z,6.40
2023-01-28T13:17:29.947Z,7.65
2023-01-28T13:20:03.515Z,7.75
2023-01-28T13:22:36.523Z,7.07
2023-01-28T13:25:23.369Z,7.70
2023-01-28T13:28:01.249Z,6.95
2023-01-28T13:30:34.251Z,7.90
2023-01-28T13:33:06.385Z,6.10
2023-01-28T13:35:42.311Z,7.75
2023-01-28T13:38:19.061Z,5.55
2023-01-28T13:40:58.051Z,5.20
2023-01-28T13:43:31.726Z,3.10
2023-01-28T13:46:03.845Z,6.10
2023-01-28T13:48:38.632Z,5.82
2023-01-28T13:51:15.927Z,4.80
2023-01-28T13:53:51.991Z,5.20
2023-01-28T13:56:25.235Z,2.63
2023-01-28T13:59:36.392Z,6.67
2023-01-28T14:02:32.453Z,5.30
2023-01-28T14:05:25.405Z,5.90
2023-01-28T14:08:30.136Z,6.88
2023-01-28T14:11:26.030Z,4.88
2023-01-28T14:14:28.346Z,4.38
2023-01-28T14:17:04.217Z,6.15
2023-01-28T14:19:37.744Z,4.45
2023-01-28T14:22:10.307Z,5.93
2023-01-28T14:24:43.778Z,5.60
2023-01-28T14:27:21.284Z,5.57
2023-01-28T14:30:06.260Z,5.30
2023-01-28T14:32:40.505Z,3.03
2023-01-28T14:37:43.191Z,4.35
2023-01-28T14:40:22.346Z,4.75
2023-01-28T14:42:57.962Z,6.97
2023-01-28T14:45:50.131Z,5.88
2023-01-28T14:48:28.040Z,6.95
2023-01-28T14:51:13.350Z,6.78
2023-01-28T14:53:57.487Z,8.18
2023-01-28T14:56:42.846Z,8.13
2023-01-28T14:59:21.563Z,6.47
2023-01-28T15:01:57.623Z,7.25
2023-01-28T15:04:29.899Z,8.07
2023-01-28T15:07:04.448Z,6.82
2023-01-28T15:09:34.737Z,8.65
2023-01-28T15:12:11.168Z,7.78
2023-01-28T15:14:41.675Z,8.30
2023-01-28T15:17:25.540Z,7.68
2023-01-28T15:19:57.142Z,9.13
2023-01-28T15:22:30.976Z,8.38
2023-01-28T15:27:34.631Z,7.53
2023-01-28T15:30:05.311Z,11.13
2023-01-28T15:32:35.897Z,9.50
2023-01-28T15:35:14.265Z,10.13
2023-01-28T15:37:45.215Z,10.25
2023-01-28T15:40:23.344Z,13.07
2023-01-28T15:42:59.170Z,10.27
2023-01-28T15:45:34.105Z,8.38
2023-01-28T15:48:09.542Z,8.77
2023-01-28T15:50:42.890Z,9.43
2023-01-28T15:53:14.565Z,9.00
2023-01-28T15:55:46.538Z,8.65
2023-01-28T15:58:34.185Z,9.23
2023-01-28T16:01:19.235Z,7.75
2023-01-28T16:03:51.438Z,9.10
2023-01-28T16:06:25.237Z,9.82
2023-01-28T16:11:33.177Z,9.55
2023-01-28T16:14:07.654Z,8.95
2023-01-28T16:16:40.358Z,8.93
2023-01-28T16:19:11.057Z,9.63
2023-01-28T16:21:48.407Z,10.02
2023-01-28T16:24:28.323Z,10.40
2023-01-28T16:27:03.155Z,9.88
2023-01-28T16:29:39.298Z,10.55
2023-01-28T16:32:31.829Z,11.50
2023-01-28T16:35:03.492Z,11.73
2023-01-28T16:37:33.819Z,11.55
2023-01-28T16:40:05.526Z,11.85
2023-01-28T16:42:36.113Z,13.27
2023-01-28T16:45:10.275Z,11.32
2023-01-28T16:47:40.525Z,12.77
2023-01-28T16:50:13.792Z,11.60
2023-01-28T16:52:45.974Z,10.67
2023-01-28T16:55:18.082Z,9.30
2023-01-28T16:57:50.242Z,8.35
2023-01-28T17:00:26.143Z,9.15
2023-01-28T17:02:58.579Z,7.20
2023-01-28T17:05:29.030Z,7.70
2023-01-28T17:07:59.543Z,7.43
2023-01-28T17:10:30.083Z,6.63
2023-01-28T17:13:00.626Z,7.80
2023-01-28T17:15:33.777Z,9.85
2023-01-28T17:18:04.079Z,6.68
2023-01-28T17:20:37.687Z,5.55
2023-01-28T17:23:09.602Z,5.78
2023-01-28T17:25:41.398Z,7.28
2023-01-28T17:28:13.093Z,7.15
2023-01-28T17:30:48.653Z,7.28
2023-01-28T17:33:19.114Z,6.53
2023-01-28T17:35:51.047Z,7.70
2023-01-28T17:38:21.506Z,7.13
2023-01-28T17:40:52.132Z,7.60
2023-01-28T17:43:22.514Z,6.25
2023-01-28T17:45:55.758Z,4.35
2023-01-28T17:48:26.353Z,6.82
2023-01-28T17:50:59.338Z,5.53
2023-01-28T17:53:31.894Z,5.25
2023-01-28T17:56:02.430Z,8.52
2023-01-28T17:58:32.871Z,7.20
2023-01-28T18:01:11.470Z,7.70
2023-01-28T18:03:41.811Z,5.88
2023-01-28T18:06:12.181Z,6.03
2023-01-28T18:08:44.771Z,8.02
2023-01-28T18:11:17.169Z,7.25
2023-01-28T18:13:49.185Z,9.52
2023-01-28T18:16:23.461Z,6.13
2023-01-28T18:18:53.594Z,8.75
2023-01-28T18:21:46.402Z,7.45
2023-01-28T18:24:21.071Z,5.55
2023-01-28T18:26:51.578Z,4.07
2023-01-28T18:29:24.330Z,4.18
2023-01-28T18:31:58.473Z,5.10
2023-01-28T18:37:03.716Z,5.57
2023-01-28T18:39:34.253Z,4.20
2023-01-28T18:42:04.909Z,4.00
2023-01-28T18:44:35.158Z,4.22
2023-01-28T18:47:09.509Z,4.00
2023-01-28T18:49:39.761Z,4.13
2023-01-28T18:52:10.521Z,3.50
2023-01-28T18:54:40.651Z,4.10
2023-01-28T18:57:11.204Z,4.00
2023-01-28T18:59:41.607Z,4.65
2023-01-28T19:02:16.909Z,3.42
2023-01-28T19:04:47.293Z,3.97
2023-01-28T19:07:17.853Z,4.07
2023-01-28T19:09:48.418Z,4.43
2023-01-28T19:12:21.601Z,3.97
2023-01-28T19:14:53.037Z,4.57
2023-01-28T19:17:26.674Z,4.30
2023-01-28T19:19:57.329Z,3.40
2023-01-28T19:22:27.922Z,5.13
2023-01-28T19:24:58.105Z,4.25
2023-01-28T19:27:29.116Z,2.72
2023-01-28T19:30:00.249Z,3.20
2023-01-28T19:32:33.437Z,3.00
2023-01-28T19:35:04.041Z,4.03
2023-01-28T19:37:36.581Z,2.72
2023-01-28T19:40:10.400Z,4.78
2023-01-28T19:42:41.290Z,2.88
2023-01-28T19:45:12.474Z,3.80
2023-01-28T19:47:45.663Z,5.38
2023-01-28T19:50:16.833Z,3.20
2023-01-28T19:52:47.506Z,3.33
2023-01-28T19:55:18.136Z,2.58
2023-01-28T19:57:50.272Z,3.33
2023-01-28T20:00:21.527Z,4.38
2023-01-28T20:02:55.971Z,2.05
2023-01-28T20:05:26.166Z,3.30
2023-01-28T20:07:56.814Z,3.42
2023-01-28T20:10:27.375Z,3.38
2023-01-28T20:12:58.075Z,2.83
2023-01-28T20:15:28.474Z,2.40
2023-01-28T20:18:02.560Z,2.83
2023-01-28T20:20:34.775Z,1.42
2023-01-28T20:23:06.843Z,3.33
2023-01-28T20:25:36.977Z,3.28
2023-01-28T20:28:08.000Z,2.85
2023-01-28T20:30:38.870Z,3.13
2023-01-28T20:33:12.189Z,2.75
2023-01-28T20:35:42.634Z,3.70
2023-01-28T20:38:14.883Z,2.78
2023-01-28T20:40:46.215Z,3.15
2023-01-28T20:43:17.720Z,2.95
2023-01-28T20:45:48.244Z,2.60
2023-01-28T20:48:21.549Z,2.53
2023-01-28T20:50:52.568Z,3.38
2023-01-28T20:53:22.971Z,2.75
2023-01-28T20:55:59.293Z,2.15
2023-01-28T20:58:30.056Z,3.60
2023-01-28T21:01:02.958Z,2.35
2023-01-28T21:03:36.692Z,2.88
2023-01-28T21:06:07.699Z,3.50
2023-01-28T21:08:38.110Z,7.30
2023-01-28T21:11:10.340Z,5.47
2023-01-28T21:13:41.519Z,4.72
2023-01-28T21:16:12.062Z,3.30
2023-01-28T21:18:45.293Z,2.72
2023-01-28T21:21:23.498Z,4.10
2023-01-28T21:23:54.989Z,3.97
2023-01-28T21:26:25.249Z,2.35
2023-01-28T21:28:56.332Z,3.75
2023-01-28T21:31:28.384Z,3.15
2023-01-28T21:34:04.247Z,3.30
2023-01-28T21:36:37.195Z,3.53
2023-01-28T21:39:08.164Z,3.38
2023-01-28T21:41:38.858Z,2.80
2023-01-28T21:44:09.432Z,3.30
2023-01-28T21:46:40.428Z,4.18
2023-01-28T21:49:14.068Z,3.78
2023-01-28T21:51:48.854Z,3.72
2023-01-28T21:54:21.031Z,3.00
2023-01-28T21:56:52.610Z,3.35
2023-01-28T21:59:30.542Z,2.75
2023-01-28T22:02:01.710Z,2.88
2023-01-28T22:04:37.504Z,3.67
2023-01-28T22:07:09.358Z,2.58
2023-01-28T22:09:39.859Z,2.50
2023-01-28T22:12:10.766Z,2.30
2023-01-28T22:14:42.105Z,3.70
2023-01-28T22:17:14.001Z,2.78
2023-01-28T22:19:48.280Z,3.20
2023-01-28T22:22:18.914Z,3.15
2023-01-28T22:24:49.298Z,3.85
2023-01-28T22:27:19.533Z,2.15
2023-01-28T22:29:50.327Z,3.00
2023-01-28T22:32:20.797Z,3.03
2023-01-28T22:34:53.718Z,3.80
2023-01-28T22:37:23.936Z,2.28
2023-01-28T22:39:56.240Z,3.53
2023-01-28T22:42:27.060Z,2.85
2023-01-28T22:44:57.733Z,3.10
2023-01-28T22:47:28.021Z,4.70
2023-01-28T22:50:01.058Z,3.65
2023-01-28T22:52:35.175Z,3.47
2023-01-28T22:55:05.411Z,6.30
2023-01-28T22:57:38.570Z,2.42
2023-01-28T23:00:12.427Z,3.60
2023-01-28T23:02:43.400Z,3.38
2023-01-28T23:05:16.357Z,2.65
2023-01-28T23:07:46.596Z,3.67
2023-01-28T23:10:17.353Z,3.42
2023-01-28T23:12:49.097Z,4.20
2023-01-28T23:15:31.678Z,4.28
2023-01-28T23:18:14.398Z,4.25
2023-01-28T23:20:59.658Z,5.13
2023-01-28T23:23:43.333Z,5.20
2023-01-28T23:26:13.643Z,4.07
2023-01-28T23:28:44.190Z,4.63
2023-01-28T23:31:14.652Z,4.50
2023-01-28T23:33:44.905Z,3.83
2023-01-28T23:36:17.828Z,4.53
2023-01-28T23:38:48.178Z,4.30
2023-01-28T23:41:18.671Z,4.57
2023-01-28T23:43:49.273Z,4.32
2023-01-28T23:46:27.429Z,3.67
2023-01-28T23:49:04.838Z,3.60
2023-01-28T23:51:37.649Z,4.03
2023-01-28T23:54:07.989Z,3.70
2023-01-28T23:56:39.410Z,4.53
2023-01-28T23:59:09.746Z,3.67
